createdAt,value
2018-07-21T00:01:53.421Z,99649.48
2018-07-21T00:04:22.873Z,99660.13
2018-07-21T00:06:52.197Z,99658.61
2018-07-21T00:09:21.501Z,99660.55
2018-07-21T00:11:50.742Z,99660.21
2018-07-21T00:14:20.102Z,99659.18
2018-07-21T00:16:49.358Z,99656.74
2018-07-21T00:19:18.596Z,99654.27
2018-07-21T00:21:48.060Z,99656.19
2018-07-21T00:24:17.352Z,99654.38
2018-07-21T00:26:48.811Z,99654.58
2018-07-21T00:29:19.110Z,99656.28
2018-07-21T00:31:48.522Z,99648.48
2018-07-21T00:34:17.774Z,99647.45
2018-07-21T00:36:47.247Z,99651.46
2018-07-21T00:39:16.740Z,99651.59
2018-07-21T00:41:46.105Z,99660.02
2018-07-21T00:44:15.364Z,99658.37
2018-07-21T00:46:44.733Z,99655.20
2018-07-21T00:49:13.966Z,99660.32
2018-07-21T00:51:43.209Z,99662.62
2018-07-21T00:54:12.462Z,99664.04
2018-07-21T00:56:41.870Z,99652.09
2018-07-21T00:59:11.325Z,99651.70
2018-07-21T01:01:40.819Z,99640.77
2018-07-21T01:04:10.311Z,99647.38
2018-07-21T01:06:39.706Z,99644.64
2018-07-21T01:09:10.854Z,99642.88
2018-07-21T01:11:40.491Z,99643.56
2018-07-21T01:14:09.843Z,99647.09
2018-07-21T01:16:39.228Z,99632.12
2018-07-21T01:19:08.549Z,99642.36
2018-07-21T01:21:37.803Z,99639.62
2018-07-21T01:24:07.048Z,99635.76
2018-07-21T01:26:36.360Z,99632.19
2018-07-21T01:29:05.725Z,99627.95
2018-07-21T01:31:35.161Z,99625.53
2018-07-21T01:34:04.484Z,99624.30
2018-07-21T01:36:33.730Z,99638.80
2018-07-21T01:39:03.040Z,99639.72
2018-07-21T01:41:32.309Z,99637.72
2018-07-21T01:44:01.589Z,99630.91
2018-07-21T01:46:30.918Z,99640.34
2018-07-21T01:49:00.204Z,99630.34
2018-07-21T01:51:29.636Z,99632.02
2018-07-21T01:53:59.073Z,99634.23
2018-07-21T01:56:28.321Z,99638.17
2018-07-21T01:58:57.661Z,99634.45
2018-07-21T02:01:27.308Z,99627.13
2018-07-21T02:03:56.620Z,99627.26
2018-07-21T02:06:26.051Z,99626.20
2018-07-21T02:08:55.403Z,99634.19
2018-07-21T02:11:24.641Z,99631.57
2018-07-21T02:13:53.910Z,99629.09
2018-07-21T02:16:23.290Z,99636.64
2018-07-21T02:18:52.950Z,99629.41
2018-07-21T02:21:22.274Z,99628.09
2018-07-21T02:23:51.625Z,99630.96
2018-07-21T02:26:20.968Z,99623.67
2018-07-21T02:28:50.228Z,99610.53
2018-07-21T02:31:19.723Z,99619.14
2018-07-21T02:33:48.956Z,99625.42
2018-07-21T02:36:18.247Z,99635.25
2018-07-21T02:38:47.546Z,99652.12
2018-07-21T02:41:16.870Z,99664.03
2018-07-21T02:43:46.218Z,99686.64
2018-07-21T02:46:15.458Z,99686.15
2018-07-21T02:48:44.738Z,99695.95
2018-07-21T02:51:14.065Z,99719.22
2018-07-21T02:53:43.375Z,99712.46
2018-07-21T02:56:12.645Z,99729.53
2018-07-21T02:58:41.810Z,99733.61
2018-07-21T03:01:11.074Z,99741.02
2018-07-21T03:03:40.395Z,99742.46
2018-07-21T03:06:09.704Z,99745.67
2018-07-21T03:08:38.907Z,99755.73
2018-07-21T03:11:08.158Z,99748.79
2018-07-21T03:13:37.434Z,99739.35
2018-07-21T03:16:06.748Z,99749.36
2018-07-21T03:18:36.097Z,99749.52
2018-07-21T03:21:05.451Z,99752.09
2018-07-21T03:23:34.910Z,99743.71
2018-07-21T03:26:04.877Z,99747.59
2018-07-21T03:28:34.539Z,99753.11
2018-07-21T03:31:03.887Z,99751.23
2018-07-21T03:33:33.170Z,99748.07
2018-07-21T03:36:02.409Z,99747.58
2018-07-21T03:38:31.762Z,99747.31
2018-07-21T03:41:01.018Z,99746.30
2018-07-21T03:43:30.250Z,99748.61
2018-07-21T03:45:59.250Z,99750.28
2018-07-21T03:48:28.612Z,99754.03
2018-07-21T03:50:57.848Z,99753.52
2018-07-21T03:53:27.187Z,99756.16
2018-07-21T03:55:56.445Z,99751.64
2018-07-21T03:58:25.727Z,99738.75
2018-07-21T04:00:55.225Z,99738.64
2018-07-21T04:03:24.481Z,99744.53
2018-07-21T04:05:53.838Z,99742.84
2018-07-21T04:08:23.128Z,99728.86
2018-07-21T04:10:52.335Z,99719.05
2018-07-21T04:13:21.587Z,99723.73
2018-07-21T04:15:50.910Z,99724.55
2018-07-21T04:18:20.382Z,99716.27
2018-07-21T04:20:49.778Z,99711.36
2018-07-21T04:23:19.118Z,99716.49
2018-07-21T04:25:48.406Z,99726.00
2018-07-21T04:28:17.803Z,99725.55
2018-07-21T04:30:47.002Z,99717.85
2018-07-21T04:33:16.433Z,99708.05
2018-07-21T04:35:46.216Z,99699.17
2018-07-21T04:38:15.525Z,99689.72
2018-07-21T04:40:44.890Z,99686.40
2018-07-21T04:43:14.130Z,99689.17
2018-07-21T04:45:43.499Z,99680.77
2018-07-21T04:48:12.930Z,99690.23
2018-07-21T04:50:42.292Z,99687.39
2018-07-21T04:53:11.520Z,99686.67
2018-07-21T04:55:40.753Z,99678.16
2018-07-21T04:58:10.046Z,99688.86
2018-07-21T05:00:39.587Z,99688.00
2018-07-21T05:03:08.793Z,99697.50
2018-07-21T05:05:37.968Z,99695.22
2018-07-21T05:08:07.222Z,99689.52
2018-07-21T05:10:36.477Z,99690.86
2018-07-21T05:13:05.717Z,99702.98
2018-07-21T05:15:34.966Z,99702.80
2018-07-21T05:18:04.109Z,99704.56
2018-07-21T05:20:33.386Z,99721.13
2018-07-21T05:23:02.611Z,99724.76
2018-07-21T05:25:31.969Z,99717.47
2018-07-21T05:28:01.299Z,99716.34
2018-07-21T05:30:30.479Z,99696.34
2018-07-21T05:32:59.741Z,99691.45
2018-07-21T05:35:28.974Z,99700.16
2018-07-21T05:37:58.246Z,99701.95
2018-07-21T05:40:27.569Z,99715.34
2018-07-21T05:42:56.569Z,99711.64
2018-07-21T05:45:25.478Z,99703.27
2018-07-21T05:47:54.530Z,99699.04
2018-07-21T05:50:23.478Z,99697.77
2018-07-21T05:52:52.898Z,99688.63
2018-07-21T05:55:22.165Z,99703.53
2018-07-21T05:57:51.431Z,99710.56
2018-07-21T06:00:20.702Z,99717.13
2018-07-21T06:02:50.180Z,99711.20
2018-07-21T06:05:19.450Z,99713.05
2018-07-21T06:07:48.796Z,99718.27
2018-07-21T06:10:18.106Z,99724.44
2018-07-21T06:12:47.379Z,99726.35
2018-07-21T06:15:16.569Z,99725.19
2018-07-21T06:17:45.794Z,99724.48
2018-07-21T06:20:15.071Z,99723.59
2018-07-21T06:22:44.334Z,99715.20
2018-07-21T06:25:13.820Z,99712.59
2018-07-21T06:27:43.230Z,99706.52
2018-07-21T06:30:12.465Z,99717.11
2018-07-21T06:32:41.732Z,99721.95
2018-07-21T06:35:10.953Z,99728.09
2018-07-21T06:37:40.199Z,99732.30
2018-07-21T06:40:09.442Z,99735.41
2018-07-21T06:42:38.691Z,99746.48
2018-07-21T06:45:07.905Z,99752.69
2018-07-21T06:47:37.202Z,99753.28
2018-07-21T06:50:07.689Z,99756.56
2018-07-21T06:52:37.438Z,99756.38
2018-07-21T06:55:07.018Z,99766.31
2018-07-21T06:57:36.278Z,99759.33
2018-07-21T07:00:06.025Z,99765.94
2018-07-21T07:02:35.363Z,99771.05
2018-07-21T07:05:04.630Z,99779.56
2018-07-21T07:07:33.870Z,99780.16
2018-07-21T07:10:03.196Z,99785.37
2018-07-21T07:12:32.526Z,99787.28
2018-07-21T07:15:01.961Z,99780.44
2018-07-21T07:17:31.308Z,99785.91
2018-07-21T07:20:00.650Z,99788.77
2018-07-21T07:22:29.924Z,99796.45
2018-07-21T07:24:59.192Z,99800.30
2018-07-21T07:27:28.506Z,99794.44
2018-07-21T07:29:57.801Z,99794.34
2018-07-21T07:32:26.914Z,99795.63
2018-07-21T07:34:55.905Z,99798.88
2018-07-21T07:37:25.054Z,99799.34
2018-07-21T07:39:54.330Z,99793.12
2018-07-21T07:42:23.618Z,99794.94
2018-07-21T07:44:52.945Z,99795.27
2018-07-21T07:47:22.254Z,99797.20
2018-07-21T07:49:51.443Z,99796.59
2018-07-21T07:52:20.726Z,99798.61
2018-07-21T07:54:50.388Z,99796.48
2018-07-21T07:57:19.981Z,99796.56
2018-07-21T07:59:50.089Z,99803.72
2018-07-21T08:02:19.864Z,99800.54
2018-07-21T08:04:49.647Z,99807.58
2018-07-21T08:07:18.912Z,99814.36
2018-07-21T08:09:48.221Z,99817.41
2018-07-21T08:12:17.466Z,99818.44
2018-07-21T08:14:46.726Z,99811.80
2018-07-21T08:17:16.137Z,99824.61
2018-07-21T08:19:45.670Z,99828.36
2018-07-21T08:22:14.894Z,99824.78
2018-07-21T08:24:44.221Z,99827.55
2018-07-21T08:27:13.569Z,99835.27
2018-07-21T08:29:42.839Z,99839.95
2018-07-21T08:32:12.078Z,99842.35
2018-07-21T08:34:41.402Z,99837.06
2018-07-21T08:37:10.495Z,99834.20
2018-07-21T08:39:39.730Z,99837.66
2018-07-21T08:42:08.965Z,99829.66
2018-07-21T08:44:38.209Z,99836.35
2018-07-21T08:47:07.662Z,99838.37
2018-07-21T08:49:37.021Z,99848.52
2018-07-21T08:52:06.390Z,99846.88
2018-07-21T08:54:35.718Z,99846.94
2018-07-21T08:57:05.019Z,99860.03
2018-07-21T08:59:34.358Z,99852.34
2018-07-21T09:02:03.598Z,99854.95
2018-07-21T09:04:32.940Z,99853.91
2018-07-21T09:07:02.270Z,99854.70
2018-07-21T09:09:31.646Z,99867.31
2018-07-21T09:12:01.037Z,99867.23
2018-07-21T09:14:30.435Z,99866.59
2018-07-21T09:16:59.609Z,99875.13
2018-07-21T09:19:29.074Z,99877.23
2018-07-21T09:21:58.548Z,99873.75
2018-07-21T09:24:27.851Z,99879.20
2018-07-21T09:26:57.050Z,99879.20
2018-07-21T09:29:26.471Z,99887.55
2018-07-21T09:31:55.713Z,99884.94
2018-07-21T09:34:24.962Z,99890.74
2018-07-21T09:36:54.250Z,99889.33
2018-07-21T09:39:23.545Z,99887.19
2018-07-21T09:41:52.846Z,99894.21
2018-07-21T09:44:22.157Z,99895.66
2018-07-21T09:46:51.531Z,99900.82
2018-07-21T09:49:20.883Z,99892.91
2018-07-21T09:51:50.131Z,99897.59
2018-07-21T09:54:19.474Z,99890.33
2018-07-21T09:56:48.749Z,99896.77
2018-07-21T09:59:18.173Z,99894.03
2018-07-21T10:01:47.422Z,99897.31
2018-07-21T10:04:16.741Z,99897.51
2018-07-21T10:06:46.160Z,99900.13
2018-07-21T10:09:15.470Z,99899.90
2018-07-21T10:11:44.859Z,99894.37
2018-07-21T10:14:14.060Z,99897.82
2018-07-21T10:16:43.719Z,99898.44
2018-07-21T10:19:13.077Z,99899.45
2018-07-21T10:21:42.562Z,99903.36
2018-07-21T10:24:16.947Z,99902.22
2018-07-21T10:26:51.159Z,99906.91
2018-07-21T10:29:20.518Z,99907.68
2018-07-21T10:31:49.794Z,99905.55
2018-07-21T10:34:19.334Z,99913.09
2018-07-21T10:36:48.710Z,99908.05
2018-07-21T10:39:18.042Z,99910.63
2018-07-21T10:41:47.322Z,99908.73
2018-07-21T10:44:16.717Z,99906.72
2018-07-21T10:46:46.234Z,99921.47
2018-07-21T10:49:15.500Z,99914.36
2018-07-21T10:51:44.742Z,99917.87
2018-07-21T10:54:14.087Z,99919.91
2018-07-21T10:56:43.325Z,99914.93
2018-07-21T10:59:12.685Z,99914.78
2018-07-21T11:01:41.970Z,99923.73
2018-07-21T11:04:12.158Z,99924.69
2018-07-21T11:06:41.571Z,99916.39
2018-07-21T11:09:11.689Z,99916.75
2018-07-21T11:11:41.150Z,99921.92
2018-07-21T11:14:10.343Z,99929.77
2018-07-21T11:16:39.700Z,99928.20
2018-07-21T11:19:09.068Z,99932.44
2018-07-21T11:21:38.285Z,99931.09
2018-07-21T11:24:07.540Z,99928.25
2018-07-21T11:26:37.095Z,99932.46
2018-07-21T11:29:06.266Z,99937.05
2018-07-21T11:31:35.614Z,99936.08
2018-07-21T11:34:04.951Z,99924.84
2018-07-21T11:36:34.239Z,99930.40
2018-07-21T11:39:03.631Z,99932.34
2018-07-21T11:41:32.876Z,99939.03
2018-07-21T11:44:02.138Z,99936.72
2018-07-21T11:46:31.442Z,99930.77
2018-07-21T11:49:00.752Z,99936.25
2018-07-21T11:51:29.993Z,99942.78
2018-07-21T11:53:59.264Z,99934.25
2018-07-21T11:56:28.591Z,99940.43
2018-07-21T11:58:57.939Z,99938.05
2018-07-21T12:01:27.184Z,99941.36
2018-07-21T12:03:56.347Z,99940.49
2018-07-21T12:06:25.710Z,99938.63
2018-07-21T12:08:54.972Z,99940.45
2018-07-21T12:11:24.291Z,99943.57
2018-07-21T12:13:53.583Z,99936.30
2018-07-21T12:16:22.925Z,99947.20
2018-07-21T12:18:52.150Z,99939.56
2018-07-21T12:21:21.405Z,99945.73
2018-07-21T12:23:50.663Z,99939.59
2018-07-21T12:26:19.911Z,99933.53
2018-07-21T12:28:49.157Z,99931.71
2018-07-21T12:31:18.803Z,99933.44
2018-07-21T12:33:48.102Z,99933.11
2018-07-21T12:36:17.818Z,99933.57
2018-07-21T12:38:47.313Z,99927.20
2018-07-21T12:41:16.729Z,99922.50
2018-07-21T12:43:45.990Z,99924.10
2018-07-21T12:46:15.234Z,99916.52
2018-07-21T12:48:44.502Z,99914.29
2018-07-21T12:51:13.854Z,99914.02
2018-07-21T12:53:43.129Z,99907.64
2018-07-21T12:56:12.416Z,99903.75
2018-07-21T12:58:41.739Z,99903.95
2018-07-21T13:01:11.005Z,99907.27
2018-07-21T13:03:40.223Z,99904.67
2018-07-21T13:06:09.473Z,99904.14
2018-07-21T13:08:38.727Z,99900.45
2018-07-21T13:11:07.972Z,99895.96
2018-07-21T13:13:37.273Z,99891.95
2018-07-21T13:16:06.588Z,99899.44
2018-07-21T13:18:35.822Z,99898.09
2018-07-21T13:21:05.084Z,99911.46
2018-07-21T13:23:34.423Z,99903.88
2018-07-21T13:26:03.791Z,99897.72
2018-07-21T13:28:33.413Z,99901.08
2018-07-21T13:31:02.636Z,99894.34
2018-07-21T13:33:32.034Z,99897.13
2018-07-21T13:36:01.305Z,99888.81
2018-07-21T13:38:30.301Z,99885.89
2018-07-21T13:40:59.233Z,99886.77
2018-07-21T13:43:28.222Z,99883.48
2018-07-21T13:45:57.456Z,99887.67
2018-07-21T13:48:26.831Z,99885.82
2018-07-21T13:50:56.055Z,99880.48
2018-07-21T13:53:25.293Z,99881.17
2018-07-21T13:55:54.561Z,99876.84
2018-07-21T13:58:23.910Z,99878.21
2018-07-21T14:00:53.171Z,99871.87
2018-07-21T14:03:22.433Z,99872.02
2018-07-21T14:05:51.687Z,99873.70
2018-07-21T14:08:20.923Z,99872.12
2018-07-21T14:10:50.161Z,99866.05
2018-07-21T14:13:19.390Z,99866.42
2018-07-21T14:15:48.736Z,99876.16
2018-07-21T14:18:18.133Z,99877.06
2018-07-21T14:20:47.393Z,99870.72
2018-07-21T14:23:16.652Z,99884.86
2018-07-21T14:25:45.878Z,99883.74
2018-07-21T14:28:15.377Z,99890.02
2018-07-21T14:30:44.572Z,99891.50
2018-07-21T14:33:13.818Z,99887.33
2018-07-21T14:35:43.263Z,99889.59
2018-07-21T14:38:12.621Z,99892.70
2018-07-21T14:40:41.880Z,99888.09
2018-07-21T14:43:11.238Z,99893.64
2018-07-21T14:45:40.478Z,99888.45
2018-07-21T14:48:09.931Z,99888.93
2018-07-21T14:50:39.696Z,99882.45
2018-07-21T14:53:08.941Z,99879.72
2018-07-21T14:55:38.241Z,99879.56
2018-07-21T14:58:07.641Z,99875.41
2018-07-21T15:00:37.217Z,99867.48
2018-07-21T15:03:06.578Z,99866.25
2018-07-21T15:05:35.794Z,99864.96
2018-07-21T15:08:05.166Z,99867.12
2018-07-21T15:10:34.415Z,99876.66
2018-07-21T15:13:03.666Z,99883.90
2018-07-21T15:15:32.914Z,99889.27
2018-07-21T15:18:02.156Z,99892.58
2018-07-21T15:20:31.403Z,99889.46
2018-07-21T15:23:00.659Z,99887.88
2018-07-21T15:25:29.889Z,99887.52
2018-07-21T15:27:59.230Z,99886.29
2018-07-21T15:30:28.406Z,99881.18
2018-07-21T15:32:57.633Z,99877.72
2018-07-21T15:35:26.813Z,99876.77
2018-07-21T15:37:56.149Z,99866.20
2018-07-21T15:40:25.556Z,99868.50
2018-07-21T15:42:54.862Z,99873.36
2018-07-21T15:45:24.106Z,99874.62
2018-07-21T15:47:53.503Z,99880.49
2018-07-21T15:50:22.803Z,99884.50
2018-07-21T15:52:52.174Z,99871.47
2018-07-21T15:55:22.067Z,99874.79
2018-07-21T15:57:51.681Z,99880.10
2018-07-21T16:00:21.614Z,99885.62
2018-07-21T16:02:50.928Z,99885.61
2018-07-21T16:05:20.162Z,99896.04
2018-07-21T16:07:49.418Z,99901.13
2018-07-21T16:10:18.761Z,99900.48
2018-07-21T16:12:48.109Z,99908.80
2018-07-21T16:15:17.519Z,99906.27
2018-07-21T16:17:46.915Z,99916.68
2018-07-21T16:20:16.174Z,99913.63
2018-07-21T16:22:45.651Z,99909.52
2018-07-21T16:25:14.883Z,99905.56
2018-07-21T16:27:44.165Z,99910.15
2018-07-21T16:30:13.499Z,99905.88
2018-07-21T16:32:42.793Z,99899.70
2018-07-21T16:35:12.091Z,99903.47
2018-07-21T16:37:41.250Z,99898.65
2018-07-21T16:40:10.512Z,99891.51
2018-07-21T16:42:39.760Z,99889.22
2018-07-21T16:45:08.995Z,99887.82
2018-07-21T16:47:38.254Z,99884.99
2018-07-21T16:50:07.500Z,99880.89
2018-07-21T16:52:36.757Z,99884.13
2018-07-21T16:55:05.897Z,99885.66
2018-07-21T16:57:35.154Z,99882.84
2018-07-21T17:00:04.511Z,99879.83
2018-07-21T17:02:33.772Z,99878.66
2018-07-21T17:05:03.088Z,99879.11
2018-07-21T17:07:32.811Z,99877.96
2018-07-21T17:10:02.217Z,99884.79
2018-07-21T17:12:31.482Z,99886.58
2018-07-21T17:15:00.722Z,99880.69
2018-07-21T17:17:30.000Z,99882.83
2018-07-21T17:19:59.321Z,99876.94
2018-07-21T17:22:28.563Z,99882.69
2018-07-21T17:24:57.636Z,99885.03
2018-07-21T17:27:26.853Z,99886.44
2018-07-21T17:29:56.137Z,99892.38
2018-07-21T17:32:25.362Z,99898.55
2018-07-21T17:34:54.631Z,99899.45
2018-07-21T17:37:23.898Z,99897.53
2018-07-21T17:39:53.311Z,99893.34
2018-07-21T17:42:22.693Z,99894.67
2018-07-21T17:44:51.954Z,99896.20
2018-07-21T17:47:21.173Z,99904.38
2018-07-21T17:49:50.422Z,99900.78
2018-07-21T17:52:19.744Z,99901.49
2018-07-21T17:54:49.123Z,99906.10
2018-07-21T17:57:18.360Z,99908.11
2018-07-21T17:59:47.720Z,99906.25
2018-07-21T18:02:17.078Z,99907.72
2018-07-21T18:04:46.307Z,99906.06
2018-07-21T18:07:15.592Z,99908.13
2018-07-21T18:09:44.811Z,99910.65
2018-07-21T18:12:13.963Z,99907.38
2018-07-21T18:14:43.399Z,99911.33
2018-07-21T18:17:12.720Z,99900.21
2018-07-21T18:19:42.123Z,99906.81
2018-07-21T18:22:11.370Z,99906.00
2018-07-21T18:24:40.616Z,99907.93
2018-07-21T18:27:09.907Z,99908.32
2018-07-21T18:29:39.220Z,99908.23
2018-07-21T18:32:08.486Z,99905.84
2018-07-21T18:34:37.740Z,99911.16
2018-07-21T18:37:06.985Z,99906.70
2018-07-21T18:39:36.219Z,99911.53
2018-07-21T18:42:05.464Z,99908.28
2018-07-21T18:44:34.797Z,99911.33
2018-07-21T18:47:04.083Z,99909.77
2018-07-21T18:49:33.201Z,99905.68
2018-07-21T18:52:02.517Z,99900.67
2018-07-21T18:54:31.931Z,99904.70
2018-07-21T18:57:01.200Z,99900.75
2018-07-21T18:59:30.427Z,99907.19
2018-07-21T19:01:59.670Z,99905.16
2018-07-21T19:04:29.061Z,99910.09
2018-07-21T19:06:58.260Z,99908.41
2018-07-21T19:09:27.610Z,99910.08
2018-07-21T19:13:03.989Z,99917.86
2018-07-21T19:15:38.167Z,99920.84
2018-07-21T19:18:07.354Z,99921.42
2018-07-21T19:20:41.502Z,99912.90
2018-07-21T19:23:11.061Z,99915.75
2018-07-21T19:25:45.462Z,99920.42
2018-07-21T19:28:14.749Z,99922.57
2018-07-21T19:30:44.154Z,99917.59
2018-07-21T19:33:13.410Z,99926.27
2018-07-21T19:35:42.645Z,99919.70
2018-07-21T19:38:12.012Z,99918.14
2018-07-21T19:40:41.341Z,99925.30
2018-07-21T19:43:10.706Z,99929.73
2018-07-21T19:45:39.946Z,99930.80
2018-07-21T19:48:09.201Z,99929.14
2018-07-21T19:50:38.430Z,99929.73
2018-07-21T19:53:07.712Z,99938.78
2018-07-21T19:55:37.049Z,99941.45
2018-07-21T19:58:06.375Z,99939.55
2018-07-21T20:00:35.789Z,99938.83
2018-07-21T20:03:05.139Z,99944.47
2018-07-21T20:05:34.521Z,99943.69
2018-07-21T20:08:03.702Z,99945.05
2018-07-21T20:10:32.950Z,99945.05
2018-07-21T20:13:02.205Z,99946.65
2018-07-21T20:15:31.454Z,99949.72
2018-07-21T20:18:00.749Z,99951.62
2018-07-21T20:20:30.090Z,99953.03
2018-07-21T20:22:59.346Z,99953.87
2018-07-21T20:25:28.662Z,99961.20
2018-07-21T20:27:57.910Z,99956.56
2018-07-21T20:30:27.737Z,99955.14
2018-07-21T20:32:57.173Z,99962.47
2018-07-21T20:35:26.462Z,99969.27
2018-07-21T20:37:55.766Z,99968.94
2018-07-21T20:40:25.188Z,99975.55
2018-07-21T20:42:54.667Z,99980.69
2018-07-21T20:45:23.966Z,99976.93
2018-07-21T20:47:53.239Z,99975.25
2018-07-21T20:50:22.493Z,99977.21
2018-07-21T20:52:51.747Z,99978.41
2018-07-21T20:55:20.970Z,99978.50
2018-07-21T20:57:50.231Z,99974.66
2018-07-21T21:00:19.503Z,99983.42
2018-07-21T21:02:48.781Z,99983.42
2018-07-21T21:05:18.110Z,99985.19
2018-07-21T21:07:47.461Z,99981.39
2018-07-21T21:10:16.689Z,99980.80
2018-07-21T21:12:46.066Z,99974.12
2018-07-21T21:15:15.280Z,99975.02
2018-07-21T21:17:44.531Z,99981.96
2018-07-21T21:20:13.769Z,99980.95
2018-07-21T21:22:43.062Z,99982.84
2018-07-21T21:25:12.383Z,99978.01
2018-07-21T21:27:41.675Z,99981.97
2018-07-21T21:30:11.110Z,99976.69
2018-07-21T21:32:40.365Z,99980.61
2018-07-21T21:35:09.597Z,99979.78
2018-07-21T21:37:38.551Z,99982.42
2018-07-21T21:40:07.491Z,99990.12
2018-07-21T21:42:36.717Z,99993.14
2018-07-21T21:45:06.063Z,99996.38
2018-07-21T21:47:35.486Z,99999.40
2018-07-21T21:50:04.843Z,99996.45
2018-07-21T21:52:34.073Z,99993.97
2018-07-21T21:55:03.341Z,99993.21
2018-07-21T21:57:32.691Z,100000.53
2018-07-21T22:00:02.000Z,99996.98
2018-07-21T22:02:31.376Z,99995.02
2018-07-21T22:05:00.391Z,99992.65
2018-07-21T22:07:29.776Z,99990.94
2018-07-21T22:09:59.070Z,99984.21
2018-07-21T22:12:28.714Z,99986.27
2018-07-21T22:14:58.116Z,99992.22
2018-07-21T22:17:27.500Z,99997.12
2018-07-21T22:19:56.753Z,99995.23
2018-07-21T22:22:25.976Z,99992.00
2018-07-21T22:24:55.517Z,99991.55
2018-07-21T22:27:24.779Z,99993.71
2018-07-21T22:29:53.970Z,99994.62
2018-07-21T22:32:23.328Z,99991.37
2018-07-21T22:34:52.591Z,100001.00
2018-07-21T22:37:21.910Z,99998.86
2018-07-21T22:39:51.274Z,99999.49
2018-07-21T22:42:20.519Z,100001.59
2018-07-21T22:44:49.756Z,100001.06
2018-07-21T22:47:19.326Z,99998.11
2018-07-21T22:49:48.813Z,100004.53
2018-07-21T22:52:18.102Z,100002.16
2018-07-21T22:54:47.573Z,100003.94
2018-07-21T22:57:17.024Z,99997.05
2018-07-21T22:59:46.402Z,100001.97
2018-07-21T23:02:15.731Z,100002.19
2018-07-21T23:04:45.071Z,99998.75
2018-07-21T23:07:14.318Z,99999.25
2018-07-21T23:09:43.586Z,99995.29
2018-07-21T23:12:12.813Z,99995.84
2018-07-21T23:14:42.098Z,99998.44
2018-07-21T23:17:11.638Z,100002.89
2018-07-21T23:19:41.030Z,99999.47
2018-07-21T23:22:10.434Z,100002.20
2018-07-21T23:24:39.753Z,100001.53
2018-07-21T23:27:09.042Z,100019.13
2018-07-21T23:29:38.301Z,100018.52
2018-07-21T23:32:07.539Z,99997.39
2018-07-21T23:34:36.903Z,100007.68
2018-07-21T23:37:06.149Z,100007.61
2018-07-21T23:39:35.404Z,100010.64
2018-07-21T23:42:04.644Z,100011.45
2018-07-21T23:44:34.017Z,100006.64
2018-07-21T23:47:03.233Z,100021.73
2018-07-21T23:49:32.221Z,100015.61
2018-07-21T23:52:01.205Z,100018.34
2018-07-21T23:54:30.110Z,100019.87
2018-07-21T23:56:59.100Z,100018.00
2018-07-21T23:59:28.030Z,100016.00
